createdAt,value
2018-05-15T00:00:48.543Z,0.00
2018-05-15T00:01:48.541Z,0.00
2018-05-15T00:02:48.544Z,0.00
2018-05-15T00:03:48.611Z,0.00
2018-05-15T00:04:48.548Z,0.00
2018-05-15T00:05:48.559Z,0.00
2018-05-15T00:06:48.563Z,0.00
2018-05-15T00:07:48.573Z,0.00
2018-05-15T00:08:48.570Z,0.00
2018-05-15T00:09:49.101Z,0.00
2018-05-15T00:10:48.572Z,0.00
2018-05-15T00:11:48.571Z,0.00
2018-05-15T00:12:48.571Z,0.00
2018-05-15T00:13:48.570Z,0.00
2018-05-15T00:14:48.588Z,0.00
2018-05-15T00:15:48.592Z,0.00
2018-05-15T00:16:48.592Z,0.00
2018-05-15T00:17:48.600Z,0.00
2018-05-15T00:18:48.598Z,0.00
2018-05-15T00:19:48.590Z,0.00
2018-05-15T00:20:48.606Z,0.00
2018-05-15T00:21:48.607Z,0.00
2018-05-15T00:22:48.603Z,0.00
2018-05-15T00:23:48.630Z,0.00
2018-05-15T00:24:48.631Z,0.00
2018-05-15T00:25:48.621Z,0.00
2018-05-15T00:26:48.658Z,0.00
2018-05-15T00:27:48.630Z,0.00
2018-05-15T00:28:48.628Z,0.00
2018-05-15T00:29:48.651Z,0.00
2018-05-15T00:30:48.629Z,0.00
2018-05-15T00:31:48.640Z,0.00
2018-05-15T00:32:48.641Z,0.00
2018-05-15T00:33:48.652Z,0.00
2018-05-15T00:34:48.666Z,0.00
2018-05-15T00:35:48.658Z,0.00
2018-05-15T00:36:48.650Z,0.00
2018-05-15T00:37:48.662Z,0.00
2018-05-15T00:38:48.662Z,0.00
2018-05-15T00:39:48.670Z,0.00
2018-05-15T00:40:48.678Z,0.00
2018-05-15T00:41:48.681Z,0.00
2018-05-15T00:42:48.677Z,0.00
2018-05-15T00:43:48.683Z,0.00
2018-05-15T00:44:48.814Z,0.00
2018-05-15T00:45:48.694Z,0.00
2018-05-15T00:46:48.705Z,0.00
2018-05-15T00:47:48.685Z,0.00
2018-05-15T00:48:48.699Z,0.00
2018-05-15T00:49:48.749Z,0.00
2018-05-15T00:50:48.742Z,0.00
2018-05-15T00:51:48.708Z,0.00
2018-05-15T00:52:48.702Z,0.00
2018-05-15T00:53:48.710Z,0.00
2018-05-15T00:54:48.720Z,0.00
2018-05-15T00:55:48.720Z,0.00
2018-05-15T00:56:48.729Z,0.00
2018-05-15T00:57:48.730Z,0.00
2018-05-15T00:58:48.731Z,0.00
2018-05-15T00:59:48.738Z,0.00
2018-05-15T01:00:48.727Z,0.00
2018-05-15T01:01:48.740Z,0.00
2018-05-15T01:02:48.739Z,0.00
2018-05-15T01:03:48.743Z,0.00
2018-05-15T01:04:48.749Z,0.00
2018-05-15T01:05:48.745Z,0.00
2018-05-15T01:06:48.798Z,0.00
2018-05-15T01:07:48.860Z,0.00
2018-05-15T01:08:48.762Z,0.00
2018-05-15T01:09:48.773Z,0.00
2018-05-15T01:10:48.784Z,0.00
2018-05-15T01:11:48.778Z,0.00
2018-05-15T01:12:48.789Z,0.00
2018-05-15T01:13:48.774Z,0.00
2018-05-15T01:14:48.778Z,0.00
2018-05-15T01:15:48.784Z,0.00
2018-05-15T01:16:48.783Z,0.00
2018-05-15T01:17:48.785Z,0.00
2018-05-15T01:18:48.789Z,0.00
2018-05-15T01:19:48.804Z,0.00
2018-05-15T01:20:48.822Z,0.00
2018-05-15T01:21:48.812Z,0.00
2018-05-15T01:22:48.804Z,0.00
2018-05-15T01:23:48.807Z,0.00
2018-05-15T01:24:48.808Z,0.00
2018-05-15T01:25:48.813Z,0.00
2018-05-15T01:26:48.824Z,0.00
2018-05-15T01:27:48.833Z,0.00
2018-05-15T01:28:48.825Z,0.00
2018-05-15T01:29:48.823Z,0.00
2018-05-15T01:30:48.884Z,0.00
2018-05-15T01:31:48.837Z,0.00
2018-05-15T01:32:48.845Z,0.00
2018-05-15T01:33:48.846Z,0.00
2018-05-15T01:34:48.855Z,0.00
2018-05-15T01:35:48.857Z,0.00
2018-05-15T01:36:48.858Z,0.00
2018-05-15T01:37:48.868Z,0.00
2018-05-15T01:38:48.941Z,0.00
2018-05-15T01:39:48.862Z,0.00
2018-05-15T01:40:48.885Z,0.00
2018-05-15T01:41:48.865Z,0.00
2018-05-15T01:42:48.870Z,0.00
2018-05-15T01:43:48.874Z,0.00
2018-05-15T01:44:48.877Z,0.00
2018-05-15T01:45:48.887Z,0.00
2018-05-15T01:46:48.886Z,0.00
2018-05-15T01:47:48.885Z,0.00
2018-05-15T01:48:48.888Z,0.00
2018-05-15T01:49:48.894Z,0.00
2018-05-15T01:50:48.902Z,0.00
2018-05-15T01:51:48.912Z,0.00
2018-05-15T01:52:48.904Z,0.00
2018-05-15T01:53:48.912Z,0.00
2018-05-15T01:54:48.910Z,0.00
2018-05-15T01:55:48.910Z,0.00
2018-05-15T01:56:48.913Z,0.00
2018-05-15T01:57:48.921Z,0.00
2018-05-15T01:58:48.927Z,0.00
2018-05-15T01:59:48.922Z,0.00
2018-05-15T02:00:48.925Z,0.00
2018-05-15T02:01:48.943Z,0.00
2018-05-15T02:02:48.937Z,0.00
2018-05-15T02:03:48.944Z,0.00
2018-05-15T02:04:48.956Z,0.00
2018-05-15T02:05:48.941Z,0.00
2018-05-15T02:06:48.954Z,0.00
2018-05-15T02:07:48.962Z,0.00
2018-05-15T02:08:48.954Z,0.00
2018-05-15T02:09:49.643Z,0.00
2018-05-15T02:10:48.983Z,0.00
2018-05-15T02:11:49.649Z,0.00
2018-05-15T02:12:49.644Z,0.00
2018-05-15T02:13:49.658Z,0.00
2018-05-15T02:14:49.667Z,0.00
2018-05-15T02:15:49.649Z,0.00
2018-05-15T02:16:49.647Z,0.00
2018-05-15T02:17:49.645Z,0.00
2018-05-15T02:18:49.722Z,0.00
2018-05-15T02:19:49.725Z,0.00
2018-05-15T02:20:49.663Z,0.00
2018-05-15T02:21:50.147Z,0.00
2018-05-15T02:22:49.699Z,0.00
2018-05-15T02:23:49.684Z,0.00
2018-05-15T02:24:50.151Z,0.00
2018-05-15T02:25:49.666Z,0.00
2018-05-15T02:26:49.735Z,0.00
2018-05-15T02:27:49.686Z,0.00
2018-05-15T02:28:49.016Z,0.00
2018-05-15T02:29:49.027Z,0.00
2018-05-15T02:30:49.024Z,0.00
2018-05-15T02:31:49.024Z,0.00
2018-05-15T02:32:49.039Z,0.00
2018-05-15T02:33:49.025Z,0.00
2018-05-15T02:34:49.030Z,0.00
2018-05-15T02:35:49.039Z,0.00
2018-05-15T02:36:49.041Z,0.00
2018-05-15T02:37:49.046Z,0.00
2018-05-15T02:38:49.051Z,0.00
2018-05-15T02:39:49.075Z,0.00
2018-05-15T02:40:49.065Z,0.00
2018-05-15T02:41:49.063Z,0.00
2018-05-15T02:42:49.073Z,0.00
2018-05-15T02:43:49.068Z,0.00
2018-05-15T02:44:49.083Z,0.00
2018-05-15T02:45:49.087Z,0.00
2018-05-15T02:46:49.073Z,0.00
2018-05-15T02:47:49.070Z,0.00
2018-05-15T02:48:49.073Z,0.00
2018-05-15T02:49:49.088Z,0.00
2018-05-15T02:50:49.085Z,0.00
2018-05-15T02:51:49.095Z,0.00
2018-05-15T02:52:49.091Z,0.00
2018-05-15T02:53:49.123Z,0.00
2018-05-15T02:54:49.755Z,0.00
2018-05-15T02:55:49.243Z,0.00
2018-05-15T02:56:49.140Z,0.00
2018-05-15T02:57:49.758Z,0.00
2018-05-15T02:58:49.108Z,0.00
2018-05-15T02:59:49.118Z,0.00
2018-05-15T03:00:49.738Z,0.00
2018-05-15T03:01:52.697Z,0.00
2018-05-15T03:02:49.125Z,0.00
2018-05-15T03:03:49.118Z,0.00
2018-05-15T03:04:49.123Z,0.00
2018-05-15T03:05:49.147Z,0.00
2018-05-15T03:06:49.133Z,0.00
2018-05-15T03:07:49.139Z,0.00
2018-05-15T03:08:49.264Z,0.00
2018-05-15T03:09:49.150Z,0.00
2018-05-15T03:10:49.149Z,0.00
2018-05-15T03:11:49.189Z,0.00
2018-05-15T03:12:49.151Z,0.00
2018-05-15T03:13:49.148Z,0.00
2018-05-15T03:14:49.161Z,0.00
2018-05-15T03:15:49.159Z,0.00
2018-05-15T03:16:49.161Z,0.00
2018-05-15T03:17:49.159Z,0.00
2018-05-15T03:18:49.165Z,0.00
2018-05-15T03:19:49.170Z,0.00
2018-05-15T03:20:49.172Z,0.00
2018-05-15T03:21:49.179Z,0.00
2018-05-15T03:22:49.182Z,0.00
2018-05-15T03:23:49.217Z,0.00
2018-05-15T03:24:49.181Z,0.00
2018-05-15T03:25:49.185Z,0.00
2018-05-15T03:26:49.251Z,0.00
2018-05-15T03:27:49.207Z,0.00
2018-05-15T03:28:49.195Z,0.00
2018-05-15T03:29:49.201Z,0.00
2018-05-15T03:30:49.201Z,0.00
2018-05-15T03:31:49.210Z,0.00
2018-05-15T03:32:49.204Z,0.00
2018-05-15T03:33:49.211Z,0.00
2018-05-15T03:34:49.210Z,0.00
2018-05-15T03:35:49.213Z,5.63
2018-05-15T03:36:49.230Z,5.63
2018-05-15T03:37:49.231Z,5.63
2018-05-15T03:38:49.240Z,5.63
2018-05-15T03:39:49.290Z,5.63
2018-05-15T03:40:49.228Z,5.63
2018-05-15T03:41:49.246Z,5.63
2018-05-15T03:42:49.234Z,5.63
2018-05-15T03:43:49.239Z,5.63
2018-05-15T03:44:49.249Z,5.63
2018-05-15T03:45:49.244Z,5.63
2018-05-15T03:46:49.255Z,11.25
2018-05-15T03:47:49.250Z,11.25
2018-05-15T03:48:49.297Z,11.25
2018-05-15T03:49:49.271Z,11.25
2018-05-15T03:50:49.267Z,11.25
2018-05-15T03:51:49.324Z,11.25
2018-05-15T03:52:49.275Z,11.25
2018-05-15T03:53:49.273Z,16.88
2018-05-15T03:54:49.267Z,16.88
2018-05-15T03:55:49.270Z,16.88
2018-05-15T03:56:49.274Z,16.88
2018-05-15T03:57:49.289Z,16.88
2018-05-15T03:58:49.281Z,16.88
2018-05-15T03:59:49.291Z,16.88
2018-05-15T04:00:49.298Z,22.50
2018-05-15T04:01:49.316Z,22.50
2018-05-15T04:02:49.296Z,22.50
2018-05-15T04:03:49.312Z,22.50
2018-05-15T04:04:49.322Z,22.50
2018-05-15T04:05:49.314Z,22.50
2018-05-15T04:06:49.307Z,28.13
2018-05-15T04:07:49.329Z,28.13
2018-05-15T04:08:49.344Z,28.13
2018-05-15T04:09:49.322Z,28.13
2018-05-15T04:10:49.399Z,28.13
2018-05-15T04:11:49.340Z,28.13
2018-05-15T04:12:49.325Z,33.75
2018-05-15T04:13:49.330Z,33.75
2018-05-15T04:14:49.348Z,33.75
2018-05-15T04:15:49.335Z,33.75
2018-05-15T04:16:49.331Z,33.75
2018-05-15T04:17:49.340Z,33.75
2018-05-15T04:18:49.348Z,39.38
2018-05-15T04:19:49.351Z,39.38
2018-05-15T04:20:49.369Z,39.38
2018-05-15T04:21:49.361Z,39.38
2018-05-15T04:22:49.361Z,39.38
2018-05-15T04:23:49.361Z,39.38
2018-05-15T04:24:49.373Z,39.38
2018-05-15T04:25:49.363Z,45.00
2018-05-15T04:26:49.368Z,45.00
2018-05-15T04:27:49.376Z,45.00
2018-05-15T04:28:49.374Z,45.00
2018-05-15T04:29:49.368Z,45.00
2018-05-15T04:30:49.495Z,50.63
2018-05-15T04:31:49.376Z,50.63
2018-05-15T04:32:49.387Z,50.63
2018-05-15T04:33:49.393Z,50.63
2018-05-15T04:34:49.409Z,50.63
2018-05-15T04:35:49.381Z,50.63
2018-05-15T04:36:49.401Z,56.25
2018-05-15T04:37:49.388Z,56.25
2018-05-15T04:38:49.405Z,56.25
2018-05-15T04:39:49.399Z,56.25
2018-05-15T04:40:49.414Z,56.25
2018-05-15T04:41:49.407Z,61.88
2018-05-15T04:42:49.403Z,61.88
2018-05-15T04:43:49.718Z,61.88
2018-05-15T04:44:49.416Z,61.88
2018-05-15T04:45:49.442Z,61.88
2018-05-15T04:46:49.426Z,67.50
2018-05-15T04:47:49.464Z,67.50
2018-05-15T04:48:49.471Z,67.50
2018-05-15T04:49:49.432Z,67.50
2018-05-15T04:50:49.441Z,67.50
2018-05-15T04:51:49.434Z,67.50
2018-05-15T04:52:49.441Z,73.13
2018-05-15T04:53:49.453Z,73.13
2018-05-15T04:54:49.450Z,73.13
2018-05-15T04:55:49.564Z,73.13
2018-05-15T04:56:49.456Z,73.13
2018-05-15T04:57:49.453Z,73.13
2018-05-15T04:58:49.479Z,78.75
2018-05-15T04:59:49.469Z,78.75
2018-05-15T05:00:49.469Z,78.75
2018-05-15T05:01:49.477Z,78.75
2018-05-15T05:02:49.476Z,78.75
2018-05-15T05:03:49.480Z,84.38
2018-05-15T05:04:49.477Z,84.38
2018-05-15T05:05:49.503Z,84.38
2018-05-15T05:06:49.481Z,90.00
2018-05-15T05:07:49.482Z,90.00
2018-05-15T05:08:49.515Z,90.00
2018-05-15T05:09:49.497Z,95.63
2018-05-15T05:10:49.505Z,95.63
2018-05-15T05:11:49.531Z,101.25
2018-05-15T05:12:49.506Z,101.25
2018-05-15T05:13:49.506Z,106.88
2018-05-15T05:14:49.511Z,112.50
2018-05-15T05:15:49.523Z,118.13
2018-05-15T05:16:49.505Z,118.13
2018-05-15T05:17:49.520Z,123.75
2018-05-15T05:18:49.543Z,123.75
2018-05-15T05:19:49.539Z,123.75
2018-05-15T05:20:49.524Z,123.75
2018-05-15T05:21:49.525Z,129.38
2018-05-15T05:22:49.524Z,129.38
2018-05-15T05:23:49.549Z,135.00
2018-05-15T05:24:49.654Z,146.25
2018-05-15T05:25:49.543Z,140.63
2018-05-15T05:26:49.553Z,151.88
2018-05-15T05:27:49.546Z,230.63
2018-05-15T05:28:49.566Z,298.13
2018-05-15T05:29:49.555Z,146.25
2018-05-15T05:30:49.686Z,298.13
2018-05-15T05:31:49.558Z,298.13
2018-05-15T05:32:49.583Z,309.38
2018-05-15T05:33:49.562Z,315.00
2018-05-15T05:34:49.555Z,326.25
2018-05-15T05:35:49.565Z,320.63
2018-05-15T05:36:49.593Z,320.63
2018-05-15T05:37:49.630Z,326.25
2018-05-15T05:38:49.575Z,326.25
2018-05-15T05:39:49.577Z,337.50
2018-05-15T05:40:49.590Z,337.50
2018-05-15T05:41:49.597Z,354.38
2018-05-15T05:42:49.592Z,348.75
2018-05-15T05:43:49.610Z,348.75
2018-05-15T05:44:49.604Z,348.75
2018-05-15T05:45:49.604Z,354.38
2018-05-15T05:46:49.613Z,354.38
2018-05-15T05:47:49.623Z,365.63
2018-05-15T05:48:49.620Z,371.25
2018-05-15T05:49:49.638Z,376.88
2018-05-15T05:50:49.779Z,382.50
2018-05-15T05:51:49.633Z,388.13
2018-05-15T05:52:49.658Z,388.13
2018-05-15T05:53:49.649Z,371.25
2018-05-15T05:54:49.655Z,315.00
2018-05-15T05:55:49.664Z,219.38
2018-05-15T05:56:49.668Z,275.63
2018-05-15T05:57:49.673Z,331.88
2018-05-15T05:58:49.679Z,360.00
2018-05-15T05:59:49.684Z,326.25
2018-05-15T06:00:49.703Z,230.63
2018-05-15T06:01:49.702Z,236.25
2018-05-15T06:02:49.774Z,208.13
2018-05-15T06:03:49.709Z,202.50
2018-05-15T06:04:49.722Z,202.50
2018-05-15T06:05:49.722Z,208.13
2018-05-15T06:06:49.749Z,202.50
2018-05-15T06:07:49.737Z,208.13
2018-05-15T06:08:50.232Z,213.75
2018-05-15T06:09:49.762Z,208.13
2018-05-15T06:10:49.747Z,225.00
2018-05-15T06:11:49.768Z,225.00
2018-05-15T06:12:49.909Z,225.00
2018-05-15T06:13:49.766Z,225.00
2018-05-15T06:14:49.785Z,225.00
2018-05-15T06:15:49.782Z,230.63
2018-05-15T06:16:49.786Z,230.63
2018-05-15T06:17:49.843Z,230.63
2018-05-15T06:18:49.802Z,230.63
2018-05-15T06:19:49.798Z,236.25
2018-05-15T06:20:49.914Z,230.63
2018-05-15T06:21:49.816Z,478.13
2018-05-15T06:22:49.847Z,236.25
2018-05-15T06:23:49.868Z,309.38
2018-05-15T06:24:49.836Z,427.50
2018-05-15T06:25:49.893Z,523.13
2018-05-15T06:26:49.864Z,523.13
2018-05-15T06:27:49.846Z,534.38
2018-05-15T06:28:49.884Z,258.75
2018-05-15T06:29:49.874Z,545.63
2018-05-15T06:30:49.888Z,551.25
2018-05-15T06:31:49.866Z,551.25
2018-05-15T06:32:49.906Z,540.00
2018-05-15T06:33:49.888Z,410.63
2018-05-15T06:34:49.884Z,281.25
2018-05-15T06:35:49.902Z,258.75
2018-05-15T06:36:49.912Z,258.75
2018-05-15T06:37:49.912Z,258.75
2018-05-15T06:38:49.932Z,258.75
2018-05-15T06:39:49.945Z,264.38
2018-05-15T06:40:49.925Z,348.75
2018-05-15T06:41:49.941Z,517.50
2018-05-15T06:42:49.950Z,579.38
2018-05-15T06:43:49.969Z,590.63
2018-05-15T06:44:50.073Z,596.25
2018-05-15T06:45:50.049Z,601.88
2018-05-15T06:46:49.972Z,601.88
2018-05-15T06:47:50.025Z,607.50
2018-05-15T06:48:49.990Z,607.50
2018-05-15T06:49:49.996Z,613.13
2018-05-15T06:50:50.006Z,624.38
2018-05-15T06:51:50.002Z,630.00
2018-05-15T06:52:50.018Z,630.00
2018-05-15T06:53:50.047Z,635.63
2018-05-15T06:54:50.043Z,641.25
2018-05-15T06:55:50.058Z,646.88
2018-05-15T06:56:50.059Z,658.13
2018-05-15T06:57:50.066Z,663.75
2018-05-15T06:58:50.081Z,658.13
2018-05-15T06:59:50.087Z,658.13
2018-05-15T07:00:50.316Z,663.75
2018-05-15T07:01:50.163Z,658.13
2018-05-15T07:02:50.175Z,663.75
2018-05-15T07:03:50.148Z,663.75
2018-05-15T07:04:50.126Z,669.38
2018-05-15T07:05:50.148Z,675.00
2018-05-15T07:06:50.152Z,680.63
2018-05-15T07:07:50.285Z,686.25
2018-05-15T07:08:50.353Z,691.88
2018-05-15T07:09:50.187Z,697.50
2018-05-15T07:10:50.349Z,703.13
2018-05-15T07:11:50.227Z,708.75
2018-05-15T07:12:50.242Z,714.38
2018-05-15T07:13:50.277Z,714.38
2018-05-15T07:14:50.274Z,714.38
2018-05-15T07:15:50.250Z,720.00
2018-05-15T07:16:50.274Z,725.63
2018-05-15T07:17:50.295Z,731.25
2018-05-15T07:18:50.305Z,736.88
2018-05-15T07:19:50.334Z,736.88
2018-05-15T07:20:50.326Z,742.50
2018-05-15T07:21:50.339Z,748.13
2018-05-15T07:22:50.350Z,753.75
2018-05-15T07:23:50.380Z,765.00
2018-05-15T07:24:50.389Z,776.25
2018-05-15T07:25:50.427Z,776.25
2018-05-15T07:26:50.435Z,781.88
2018-05-15T07:27:50.403Z,787.50
2018-05-15T07:28:50.439Z,787.50
2018-05-15T07:29:50.440Z,793.13
2018-05-15T07:30:50.463Z,798.75
2018-05-15T07:31:50.836Z,804.38
2018-05-15T07:32:50.507Z,815.63
2018-05-15T07:33:50.745Z,821.25
2018-05-15T07:34:50.524Z,821.25
2018-05-15T07:35:50.564Z,821.25
2018-05-15T07:36:50.538Z,821.25
2018-05-15T07:37:50.568Z,821.25
2018-05-15T07:38:50.663Z,832.50
2018-05-15T07:39:50.711Z,832.50
2018-05-15T07:40:50.667Z,838.13
2018-05-15T07:41:51.307Z,759.38
2018-05-15T07:42:50.647Z,843.75
2018-05-15T07:43:50.761Z,866.25
2018-05-15T07:44:50.660Z,815.63
2018-05-15T07:45:50.719Z,776.25
2018-05-15T07:46:50.779Z,877.50
2018-05-15T07:47:50.697Z,860.63
2018-05-15T07:48:50.798Z,888.75
2018-05-15T07:49:51.304Z,911.25
2018-05-15T07:50:50.755Z,928.13
2018-05-15T07:51:50.850Z,933.75
2018-05-15T07:52:51.297Z,939.38
2018-05-15T07:53:50.804Z,950.63
2018-05-15T07:54:50.784Z,961.88
2018-05-15T07:55:50.841Z,978.75
2018-05-15T07:56:50.825Z,967.50
2018-05-15T07:57:50.843Z,990.00
2018-05-15T07:58:50.842Z,978.75
2018-05-15T07:59:50.855Z,1006.88
2018-05-15T08:00:50.939Z,1012.50
2018-05-15T08:01:50.927Z,1018.13
2018-05-15T08:02:51.649Z,1029.38
2018-05-15T08:03:55.983Z,1040.63
2018-05-15T08:05:05.982Z,1057.50
2018-05-15T08:05:51.095Z,1063.13
2018-05-15T08:06:51.101Z,1080.00
2018-05-15T08:07:51.070Z,1085.63
2018-05-15T08:08:51.104Z,1102.50
2018-05-15T08:09:51.026Z,1108.13
2018-05-15T08:10:51.151Z,1125.00
2018-05-15T08:11:51.248Z,1147.50
2018-05-15T08:12:51.814Z,1170.00
2018-05-15T08:13:51.153Z,1181.25
2018-05-15T08:14:51.296Z,1209.38
2018-05-15T08:15:51.810Z,1226.25
2018-05-15T08:16:51.192Z,1254.38
2018-05-15T08:17:51.206Z,1271.25
2018-05-15T08:18:51.203Z,1299.38
2018-05-15T08:19:51.215Z,1350.00
2018-05-15T08:20:51.227Z,1411.88
2018-05-15T08:21:51.254Z,1473.75
2018-05-15T08:22:51.256Z,1546.88
2018-05-15T08:23:51.264Z,1653.75
2018-05-15T08:24:51.286Z,1743.75
2018-05-15T08:25:52.331Z,1833.75
2018-05-15T08:26:51.335Z,1873.13
2018-05-15T08:27:51.502Z,2221.88
2018-05-15T08:28:51.591Z,2356.88
2018-05-15T08:29:51.402Z,2503.13
2018-05-15T08:30:51.440Z,2801.25
2018-05-15T08:31:51.422Z,3076.88
2018-05-15T08:32:51.501Z,3510.00
2018-05-15T08:33:51.476Z,4016.25
2018-05-15T08:34:51.552Z,4696.88
2018-05-15T08:35:51.561Z,4854.38
2018-05-15T08:36:51.809Z,5023.13
2018-05-15T08:37:51.558Z,5343.75
2018-05-15T08:38:51.538Z,5613.75
2018-05-15T08:39:51.570Z,5422.50
2018-05-15T08:40:51.577Z,5287.50
2018-05-15T08:41:51.594Z,5062.50
2018-05-15T08:42:51.685Z,4871.25
2018-05-15T08:43:51.703Z,4786.88
2018-05-15T08:44:51.686Z,4702.50
2018-05-15T08:45:51.763Z,4533.75
2018-05-15T08:46:51.688Z,3937.50
2018-05-15T08:47:51.816Z,3751.88
2018-05-15T08:48:52.325Z,3645.00
2018-05-15T08:49:51.866Z,3363.75
2018-05-15T08:50:51.869Z,3093.75
2018-05-15T08:51:52.827Z,3110.63
2018-05-15T08:52:52.130Z,3060.00
2018-05-15T08:53:53.397Z,3150.00
2018-05-15T08:54:52.038Z,3071.25
2018-05-15T08:55:51.899Z,3088.13
2018-05-15T08:56:52.370Z,2958.75
2018-05-15T08:57:51.993Z,2868.75
2018-05-15T08:58:51.965Z,2930.63
2018-05-15T08:59:51.977Z,2885.63
2018-05-15T09:00:51.994Z,2964.38
2018-05-15T09:01:52.010Z,2986.88
2018-05-15T09:02:52.000Z,2986.88
2018-05-15T09:03:52.051Z,2919.38
2018-05-15T09:04:52.051Z,2953.13
2018-05-15T09:05:52.062Z,2700.00
2018-05-15T09:06:52.132Z,2694.38
2018-05-15T09:07:52.248Z,2806.88
2018-05-15T09:08:52.135Z,2823.75
2018-05-15T09:09:52.196Z,2913.75
2018-05-15T09:10:52.216Z,2947.50
2018-05-15T09:11:52.221Z,2874.38
2018-05-15T09:12:52.215Z,2823.75
2018-05-15T09:13:52.269Z,2733.75
2018-05-15T09:14:52.301Z,2716.88
2018-05-15T09:15:52.244Z,2801.25
2018-05-15T09:16:52.304Z,2790.00
2018-05-15T09:17:52.335Z,2716.88
2018-05-15T09:18:52.331Z,2722.50
2018-05-15T09:19:52.670Z,2722.50
2018-05-15T09:20:52.424Z,2823.75
2018-05-15T09:21:52.426Z,2874.38
2018-05-15T09:22:53.350Z,2829.38
2018-05-15T09:23:52.993Z,2868.75
2018-05-15T09:24:52.635Z,2846.25
2018-05-15T09:25:53.629Z,2604.38
2018-05-15T09:26:52.509Z,2891.25
2018-05-15T09:27:53.542Z,2986.88
2018-05-15T09:28:52.559Z,2992.50
2018-05-15T09:29:52.563Z,2913.75
2018-05-15T09:30:52.555Z,2925.00
2018-05-15T09:31:52.971Z,2970.00
2018-05-15T09:32:52.705Z,3037.50
2018-05-15T09:33:52.811Z,2992.50
2018-05-15T09:34:53.361Z,3116.25
2018-05-15T09:35:53.360Z,3020.63
2018-05-15T09:36:52.656Z,3133.13
2018-05-15T09:37:53.253Z,2761.88
2018-05-15T09:38:52.869Z,3144.38
2018-05-15T09:39:52.764Z,3487.50
2018-05-15T09:40:52.770Z,2536.88
2018-05-15T09:41:52.862Z,2075.63
2018-05-15T09:42:52.858Z,2458.13
2018-05-15T09:43:53.371Z,2272.50
2018-05-15T09:44:52.970Z,2621.25
2018-05-15T09:45:53.370Z,3515.63
2018-05-15T09:46:54.825Z,2998.13
2018-05-15T09:47:53.231Z,2913.75
2018-05-15T09:48:53.013Z,3026.25
2018-05-15T09:49:53.091Z,2733.75
2018-05-15T09:50:53.866Z,3065.63
2018-05-15T09:51:53.335Z,3211.88
2018-05-15T09:52:52.989Z,3397.50
2018-05-15T09:53:54.198Z,3543.75
2018-05-15T09:54:54.117Z,3690.00
2018-05-15T09:55:53.092Z,3628.13
2018-05-15T09:56:53.088Z,3420.00
2018-05-15T09:57:53.106Z,3740.63
2018-05-15T09:58:53.108Z,3841.88
2018-05-15T09:59:53.118Z,3836.25
2018-05-15T10:00:53.907Z,3796.88
2018-05-15T10:01:53.232Z,3881.25
2018-05-15T10:02:53.279Z,3121.88
2018-05-15T10:03:53.209Z,3639.38
2018-05-15T10:04:53.657Z,3633.75
2018-05-15T10:05:53.301Z,3256.88
2018-05-15T10:06:53.264Z,3751.88
2018-05-15T10:07:53.467Z,3661.88
2018-05-15T10:08:53.386Z,3493.13
2018-05-15T10:09:53.403Z,3493.13
2018-05-15T10:10:53.370Z,3577.50
2018-05-15T10:11:56.861Z,3650.63
2018-05-15T10:12:53.374Z,3538.13
2018-05-15T10:13:54.381Z,3352.50
2018-05-15T10:14:53.539Z,3150.00
2018-05-15T10:15:53.467Z,2885.63
2018-05-15T10:16:53.467Z,2570.63
2018-05-15T10:17:53.510Z,2413.13
2018-05-15T10:18:53.501Z,2401.88
2018-05-15T10:19:53.646Z,2278.13
2018-05-15T10:20:53.573Z,2188.13
2018-05-15T10:21:53.652Z,2075.63
2018-05-15T10:22:53.626Z,1935.00
2018-05-15T10:23:53.610Z,1906.88
2018-05-15T10:24:53.733Z,2002.50
2018-05-15T10:25:53.648Z,2070.00
2018-05-15T10:26:53.707Z,2092.50
2018-05-15T10:27:53.702Z,1974.38
2018-05-15T10:28:53.724Z,1845.00
2018-05-15T10:29:53.867Z,1856.25
2018-05-15T10:30:54.886Z,1980.00
2018-05-15T10:31:53.776Z,1940.63
2018-05-15T10:32:53.798Z,1923.75
2018-05-15T10:33:53.827Z,2660.63
2018-05-15T10:34:53.835Z,3532.50
2018-05-15T10:35:53.930Z,2514.38
2018-05-15T10:36:53.879Z,3256.88
2018-05-15T10:37:53.902Z,3538.13
2018-05-15T10:38:53.913Z,3566.25
2018-05-15T10:39:53.932Z,3313.13
2018-05-15T10:40:53.960Z,3397.50
2018-05-15T10:41:53.988Z,3408.75
2018-05-15T10:42:53.983Z,3251.25
2018-05-15T10:43:54.112Z,2739.38
2018-05-15T10:44:54.107Z,1417.50
2018-05-15T10:45:54.051Z,517.50
2018-05-15T10:46:54.067Z,421.88
2018-05-15T10:47:54.086Z,399.38
2018-05-15T10:48:54.112Z,393.75
2018-05-15T10:49:54.115Z,393.75
2018-05-15T10:50:54.240Z,393.75
2018-05-15T10:51:54.179Z,399.38
2018-05-15T10:52:54.232Z,399.38
2018-05-15T10:53:54.186Z,405.00
2018-05-15T10:54:54.213Z,405.00
2018-05-15T10:55:54.289Z,410.63
2018-05-15T10:56:54.309Z,416.25
2018-05-15T10:57:54.286Z,427.50
2018-05-15T10:58:55.221Z,433.13
2018-05-15T10:59:54.268Z,438.75
2018-05-15T11:00:54.312Z,433.13
2018-05-15T11:01:54.324Z,433.13
2018-05-15T11:02:54.321Z,433.13
2018-05-15T11:03:54.415Z,433.13
2018-05-15T11:04:54.351Z,433.13
2018-05-15T11:05:54.441Z,433.13
2018-05-15T11:06:54.379Z,410.63
2018-05-15T11:07:54.489Z,376.88
2018-05-15T11:08:54.458Z,360.00
2018-05-15T11:09:54.402Z,365.63
2018-05-15T11:10:54.401Z,376.88
2018-05-15T11:11:54.442Z,393.75
2018-05-15T11:12:54.516Z,410.63
2018-05-15T11:13:54.435Z,427.50
2018-05-15T11:14:54.491Z,427.50
2018-05-15T11:15:54.488Z,421.88
2018-05-15T11:16:54.480Z,399.38
2018-05-15T11:17:54.484Z,388.13
2018-05-15T11:18:54.491Z,348.75
2018-05-15T11:19:56.440Z,320.63
2018-05-15T11:20:57.525Z,247.50
2018-05-15T11:21:56.427Z,202.50
2018-05-15T11:22:58.429Z,208.13
2018-05-15T11:23:55.446Z,230.63
2018-05-15T11:24:56.424Z,230.63
2018-05-15T11:25:58.477Z,219.38
2018-05-15T11:26:57.941Z,225.00
2018-05-15T11:29:16.559Z,230.63
2018-05-15T11:29:54.646Z,225.00
2018-05-15T11:30:55.444Z,225.00
2018-05-15T11:31:55.483Z,219.38
2018-05-15T11:32:55.534Z,219.38
2018-05-15T11:33:55.445Z,219.38
2018-05-15T11:34:54.865Z,219.38
2018-05-15T11:35:54.752Z,219.38
2018-05-15T11:36:54.733Z,219.38
2018-05-15T11:37:54.723Z,219.38
2018-05-15T11:38:54.724Z,219.38
2018-05-15T11:39:54.706Z,213.75
2018-05-15T11:40:55.446Z,213.75
2018-05-15T11:41:54.826Z,213.75
2018-05-15T11:42:54.749Z,213.75
2018-05-15T11:43:55.563Z,219.38
2018-05-15T11:44:54.919Z,225.00
2018-05-15T11:45:54.853Z,225.00
2018-05-15T11:46:54.768Z,225.00
2018-05-15T11:47:55.320Z,230.63
2018-05-15T11:48:55.608Z,236.25
2018-05-15T11:49:55.698Z,230.63
2018-05-15T11:50:57.362Z,213.75
2018-05-15T11:51:55.786Z,219.38
2018-05-15T11:52:55.502Z,213.75
2018-05-15T11:53:55.482Z,213.75
2018-05-15T11:54:55.196Z,213.75
2018-05-15T11:55:55.115Z,208.13
2018-05-15T11:56:55.149Z,202.50
2018-05-15T11:57:54.993Z,202.50
2018-05-15T11:58:54.886Z,202.50
2018-05-15T11:59:58.086Z,202.50
2018-05-15T12:01:19.464Z,208.13
2018-05-15T12:01:56.985Z,208.13
2018-05-15T12:02:55.498Z,208.13
2018-05-15T12:03:56.046Z,208.13
2018-05-15T12:04:55.129Z,202.50
2018-05-15T12:05:55.357Z,202.50
2018-05-15T12:06:54.992Z,196.88
2018-05-15T12:07:54.989Z,191.25
2018-05-15T12:08:55.218Z,191.25
2018-05-15T12:09:55.106Z,191.25
2018-05-15T12:10:55.035Z,191.25
2018-05-15T12:11:55.961Z,191.25
2018-05-15T12:12:55.103Z,185.63
2018-05-15T12:13:55.962Z,185.63
2018-05-15T12:14:54.993Z,185.63
2018-05-15T12:15:55.964Z,185.63
2018-05-15T12:16:55.146Z,180.00
2018-05-15T12:17:55.041Z,185.63
2018-05-15T12:18:55.245Z,180.00
2018-05-15T12:19:57.502Z,180.00
2018-05-15T12:20:56.865Z,180.00
2018-05-15T12:21:57.206Z,185.63
2018-05-15T12:22:56.010Z,191.25
2018-05-15T12:23:55.092Z,185.63
2018-05-15T12:24:55.082Z,180.00
2018-05-15T12:25:55.114Z,180.00
2018-05-15T12:26:55.121Z,191.25
2018-05-15T12:27:55.253Z,208.13
2018-05-15T12:28:55.116Z,213.75
2018-05-15T12:29:55.224Z,208.13
2018-05-15T12:30:55.124Z,196.88
2018-05-15T12:31:55.151Z,191.25
2018-05-15T12:32:56.093Z,196.88
2018-05-15T12:33:56.062Z,196.88
2018-05-15T12:34:55.242Z,196.88
2018-05-15T12:35:55.194Z,191.25
2018-05-15T12:36:55.197Z,180.00
2018-05-15T12:38:00.118Z,174.38
2018-05-15T12:38:55.182Z,191.25
2018-05-15T12:39:55.204Z,185.63
2018-05-15T12:40:55.232Z,180.00
2018-05-15T12:41:55.366Z,180.00